createdAt,value
2022-11-22T00:00:36.242Z,42.50
2022-11-22T00:03:02.911Z,44.03
2022-11-22T00:05:36.211Z,45.20
2022-11-22T00:08:03.665Z,44.47
2022-11-22T00:10:30.389Z,42.83
2022-11-22T00:13:03.207Z,41.40
2022-11-22T00:15:30.432Z,40.00
2022-11-22T00:17:57.161Z,42.43
2022-11-22T00:20:30.191Z,42.30
2022-11-22T00:23:04.158Z,43.83
2022-11-22T00:25:37.182Z,42.77
2022-11-22T00:28:10.253Z,40.90
2022-11-22T00:30:36.907Z,43.10
2022-11-22T00:33:10.256Z,47.17
2022-11-22T00:35:59.164Z,42.93
2022-11-22T00:38:32.185Z,43.20
2022-11-22T00:40:58.820Z,43.60
2022-11-22T00:43:25.541Z,42.07
2022-11-22T00:45:59.172Z,45.93
2022-11-22T00:48:25.762Z,46.13
2022-11-22T00:50:59.284Z,47.77
2022-11-22T00:53:26.145Z,43.20
2022-11-22T00:55:59.232Z,42.63
2022-11-22T00:58:25.948Z,47.50
2022-11-22T01:00:56.571Z,40.43
2022-11-22T01:03:30.256Z,44.60
2022-11-22T01:05:56.854Z,45.43
2022-11-22T01:08:23.726Z,42.43
2022-11-22T01:11:05.178Z,43.37
2022-11-22T01:13:39.248Z,38.50
2022-11-22T01:16:08.206Z,37.60
2022-11-22T01:18:35.243Z,40.57
2022-11-22T01:21:08.177Z,46.30
2022-11-22T01:23:35.253Z,40.83
2022-11-22T01:26:09.156Z,39.73
2022-11-22T01:28:43.165Z,42.47
2022-11-22T01:31:10.113Z,41.20
2022-11-22T01:33:36.741Z,40.53
2022-11-22T01:36:10.252Z,43.33
2022-11-22T01:38:43.654Z,42.67
2022-11-22T01:41:17.143Z,50.50
2022-11-22T01:43:50.202Z,42.57
2022-11-22T01:46:37.321Z,41.37
2022-11-22T01:49:35.251Z,40.50
2022-11-22T01:52:13.849Z,40.53
2022-11-22T01:54:49.211Z,42.07
2022-11-22T01:57:20.784Z,37.37
2022-11-22T02:00:01.172Z,40.97
2022-11-22T02:02:28.327Z,37.77
2022-11-22T02:05:04.201Z,40.33
2022-11-22T02:08:00.197Z,43.83
2022-11-22T02:10:29.043Z,37.20
2022-11-22T02:12:58.890Z,39.27
2022-11-22T02:15:32.202Z,37.63
2022-11-22T02:17:58.886Z,38.37
2022-11-22T02:20:25.504Z,44.43
2022-11-22T02:23:27.227Z,35.03
2022-11-22T02:26:03.225Z,39.73
2022-11-22T02:28:34.710Z,38.53
2022-11-22T02:31:01.439Z,37.57
2022-11-22T02:33:35.180Z,38.40
2022-11-22T02:36:09.183Z,39.47
2022-11-22T02:38:42.220Z,38.43
2022-11-22T02:41:19.231Z,40.77
2022-11-22T02:43:47.496Z,42.57
2022-11-22T02:46:27.200Z,47.63
2022-11-22T02:49:00.244Z,39.97
2022-11-22T02:51:27.188Z,44.00
2022-11-22T02:54:00.251Z,42.57
2022-11-22T02:56:26.836Z,39.97
2022-11-22T02:58:53.466Z,43.30
2022-11-22T03:01:26.238Z,43.50
2022-11-22T03:03:52.922Z,43.00
2022-11-22T03:06:26.205Z,42.37
2022-11-22T03:08:56.409Z,42.50
2022-11-22T03:11:31.134Z,40.63
2022-11-22T03:13:57.724Z,40.97
2022-11-22T03:16:24.317Z,43.43
2022-11-22T03:18:57.172Z,41.20
2022-11-22T03:21:23.743Z,48.97
2022-11-22T03:23:57.176Z,47.37
2022-11-22T03:26:23.955Z,45.60
2022-11-22T03:28:50.633Z,45.67
2022-11-22T03:31:24.196Z,45.87
2022-11-22T03:33:57.188Z,47.93
2022-11-22T03:36:30.612Z,46.07
2022-11-22T03:39:04.228Z,49.77
2022-11-22T03:41:37.180Z,53.60
2022-11-22T03:44:04.423Z,48.63
2022-11-22T03:46:31.099Z,50.73
2022-11-22T03:49:04.155Z,56.40
2022-11-22T03:51:37.210Z,50.10
2022-11-22T03:54:03.903Z,55.23
2022-11-22T03:56:30.616Z,53.53
2022-11-22T03:59:04.157Z,54.77
2022-11-22T04:01:37.208Z,52.83
2022-11-22T04:04:10.133Z,54.17
2022-11-22T04:06:36.816Z,54.07
2022-11-22T04:09:11.244Z,51.53
2022-11-22T04:11:44.136Z,54.83
2022-11-22T04:14:37.166Z,55.10
2022-11-22T04:17:03.796Z,54.83
2022-11-22T04:19:30.645Z,54.07
2022-11-22T04:22:04.222Z,54.37
2022-11-22T04:24:49.550Z,52.60
2022-11-22T04:27:23.151Z,55.90
2022-11-22T04:29:49.717Z,58.93
2022-11-22T04:32:41.179Z,55.23
2022-11-22T04:35:14.416Z,54.40
2022-11-22T04:37:58.161Z,60.00
2022-11-22T04:40:24.844Z,61.03
2022-11-22T04:43:16.144Z,60.23
2022-11-22T04:45:50.187Z,57.00
2022-11-22T04:48:17.431Z,52.97
2022-11-22T04:51:10.215Z,55.07
2022-11-22T04:53:44.146Z,62.73
2022-11-22T04:56:18.146Z,56.57
2022-11-22T04:58:44.827Z,61.17
2022-11-22T05:01:18.346Z,64.10
2022-11-22T05:03:45.113Z,64.87
2022-11-22T05:06:20.224Z,63.90
2022-11-22T05:08:46.842Z,59.10
2022-11-22T05:11:20.223Z,64.60
2022-11-22T05:13:46.861Z,62.23
2022-11-22T05:16:15.078Z,60.23
2022-11-22T05:18:48.327Z,60.53
2022-11-22T05:21:14.961Z,67.07
2022-11-22T05:24:01.220Z,59.27
2022-11-22T05:26:30.045Z,57.97
2022-11-22T05:29:00.566Z,60.50
2022-11-22T05:31:34.138Z,54.90
2022-11-22T05:34:01.128Z,56.70
2022-11-22T05:36:41.168Z,63.23
2022-11-22T05:42:02.130Z,61.63
2022-11-22T05:44:28.766Z,60.20
2022-11-22T05:47:02.234Z,55.90
2022-11-22T05:49:29.217Z,59.67
2022-11-22T05:51:55.978Z,62.60
2022-11-22T05:54:29.217Z,62.27
2022-11-22T05:57:03.152Z,59.20
2022-11-22T05:59:29.868Z,62.47
2022-11-22T06:01:56.610Z,61.93
2022-11-22T06:04:30.140Z,58.53
2022-11-22T06:07:08.355Z,56.67
2022-11-22T06:09:43.224Z,60.13
2022-11-22T06:12:16.137Z,57.40
2022-11-22T06:14:49.241Z,60.33
2022-11-22T06:17:16.784Z,57.70
2022-11-22T06:19:50.146Z,55.87
2022-11-22T06:22:16.749Z,58.67
2022-11-22T06:24:50.166Z,60.67
2022-11-22T06:27:16.805Z,58.97
2022-11-22T06:29:50.164Z,59.43
2022-11-22T06:32:16.835Z,59.67
2022-11-22T06:34:50.167Z,58.70
2022-11-22T06:37:23.151Z,62.53
2022-11-22T06:39:57.165Z,57.07
2022-11-22T06:42:23.828Z,57.20
2022-11-22T06:44:50.506Z,62.50
2022-11-22T06:47:24.129Z,60.47
2022-11-22T06:49:57.293Z,62.47
2022-11-22T06:52:24.081Z,60.00
2022-11-22T06:54:50.692Z,56.10
2022-11-22T06:57:24.145Z,55.87
2022-11-22T06:59:50.743Z,57.53
2022-11-22T07:02:17.376Z,63.43
2022-11-22T07:05:17.238Z,56.07
2022-11-22T07:07:43.242Z,56.43
2022-11-22T07:10:17.272Z,53.97
2022-11-22T07:12:43.916Z,64.90
2022-11-22T07:15:11.078Z,60.83
2022-11-22T07:17:44.301Z,57.27
2022-11-22T07:20:17.112Z,60.88
2022-11-22T07:22:43.726Z,65.77
2022-11-22T07:25:10.690Z,63.10
2022-11-22T07:27:44.166Z,64.33
2022-11-22T07:30:11.314Z,60.63
2022-11-22T07:32:37.908Z,61.53
2022-11-22T07:35:11.149Z,60.53
2022-11-22T07:37:44.571Z,59.13
2022-11-22T07:40:18.119Z,59.38
2022-11-22T07:42:57.024Z,57.38
2022-11-22T07:45:25.174Z,58.83
2022-11-22T07:47:58.198Z,60.08
2022-11-22T07:50:24.911Z,60.85
2022-11-22T07:53:05.256Z,62.97
2022-11-22T07:55:31.911Z,57.58
2022-11-22T07:57:59.521Z,61.80
2022-11-22T08:00:33.220Z,58.33
2022-11-22T08:03:06.184Z,60.90
2022-11-22T08:05:32.800Z,59.00
2022-11-22T08:08:06.212Z,60.40
2022-11-22T08:10:32.833Z,57.38
2022-11-22T08:13:07.197Z,63.95
2022-11-22T08:15:33.986Z,59.60
2022-11-22T08:18:00.633Z,61.58
2022-11-22T08:20:34.181Z,59.97
2022-11-22T08:23:07.526Z,60.70
2022-11-22T08:25:41.143Z,56.80
2022-11-22T08:28:07.870Z,64.20
2022-11-22T08:30:41.128Z,60.70
2022-11-22T08:33:14.201Z,69.30
2022-11-22T08:35:47.128Z,62.08
2022-11-22T08:38:27.165Z,67.20
2022-11-22T08:40:54.038Z,66.93
2022-11-22T08:43:20.703Z,68.10
2022-11-22T08:46:02.243Z,75.15
2022-11-22T08:48:30.589Z,72.03
2022-11-22T08:51:06.492Z,66.05
2022-11-22T08:53:35.014Z,66.78
2022-11-22T08:56:03.127Z,70.65
2022-11-22T08:58:37.264Z,76.90
2022-11-22T09:01:09.061Z,72.43
2022-11-22T09:03:37.174Z,78.72
2022-11-22T09:09:22.024Z,78.32
2022-11-22T09:11:52.121Z,79.30
2022-11-22T09:14:25.117Z,79.18
2022-11-22T09:16:58.141Z,76.07
2022-11-22T09:19:25.291Z,75.32
2022-11-22T09:21:52.080Z,80.40
2022-11-22T09:24:25.784Z,77.28
2022-11-22T09:26:52.370Z,74.10
2022-11-22T09:29:19.082Z,73.65
2022-11-22T09:31:52.346Z,81.68
2022-11-22T09:34:19.060Z,73.53
2022-11-22T09:37:06.177Z,78.75
2022-11-22T09:39:53.107Z,71.15
2022-11-22T09:42:55.162Z,77.43
2022-11-22T09:45:35.031Z,68.20
2022-11-22T09:48:28.188Z,73.03
2022-11-22T09:51:09.048Z,76.22
2022-11-22T09:53:56.109Z,71.32
2022-11-22T09:56:26.938Z,66.60
2022-11-22T09:59:13.105Z,71.25
2022-11-22T10:01:45.266Z,68.28
2022-11-22T10:04:26.189Z,71.30
2022-11-22T10:07:03.422Z,68.07
2022-11-22T10:09:48.244Z,79.07
2022-11-22T10:12:41.197Z,71.22
2022-11-22T10:15:40.222Z,69.30
2022-11-22T10:18:29.025Z,70.38
2022-11-22T10:21:02.116Z,69.85
2022-11-22T10:23:29.356Z,68.18
2022-11-22T10:26:18.096Z,72.70
2022-11-22T10:29:20.276Z,67.70
2022-11-22T10:32:05.261Z,67.85
2022-11-22T10:34:56.923Z,64.53
2022-11-22T10:37:42.209Z,66.32
2022-11-22T10:40:40.174Z,64.18
2022-11-22T10:43:42.133Z,75.32
2022-11-22T10:46:27.121Z,64.00
2022-11-22T10:49:13.140Z,69.13
2022-11-22T10:52:09.789Z,65.82
2022-11-22T10:54:57.171Z,72.13
2022-11-22T10:57:38.511Z,70.32
2022-11-22T11:00:28.121Z,67.55
2022-11-22T11:03:05.448Z,66.75
2022-11-22T11:06:21.593Z,68.40
2022-11-22T11:11:58.281Z,63.83
2022-11-22T11:14:37.314Z,74.88
2022-11-22T11:17:13.156Z,63.30
2022-11-22T11:19:43.061Z,65.55
2022-11-22T11:22:09.613Z,63.50
2022-11-22T11:24:47.137Z,62.30
2022-11-22T11:27:17.046Z,64.07
2022-11-22T11:29:57.485Z,59.80
2022-11-22T11:32:24.074Z,60.22
2022-11-22T11:35:04.150Z,64.35
2022-11-22T11:37:36.759Z,62.45
2022-11-22T11:40:38.235Z,59.78
2022-11-22T11:43:22.752Z,62.03
2022-11-22T11:45:56.181Z,55.30
2022-11-22T11:48:28.233Z,57.53
2022-11-22T11:51:20.090Z,60.50
2022-11-22T11:54:04.620Z,58.33
2022-11-22T11:56:45.120Z,64.30
2022-11-22T11:59:32.333Z,57.53
2022-11-22T12:02:13.339Z,58.30
2022-11-22T12:05:17.712Z,66.07
2022-11-22T12:07:52.168Z,56.45
2022-11-22T12:10:29.726Z,56.65
2022-11-22T12:13:18.502Z,59.00
2022-11-22T12:15:57.045Z,54.67
2022-11-22T12:18:59.102Z,62.75
2022-11-22T12:21:59.257Z,60.65
2022-11-22T12:25:16.518Z,56.20
2022-11-22T12:27:41.169Z,56.88
2022-11-22T12:30:12.485Z,55.33
2022-11-22T12:32:53.246Z,56.88
2022-11-22T12:35:23.696Z,56.70
2022-11-22T12:38:07.145Z,56.75
2022-11-22T12:40:48.249Z,53.75
2022-11-22T12:43:36.120Z,60.47
2022-11-22T12:46:19.755Z,57.20
2022-11-22T12:49:07.214Z,58.50
2022-11-22T12:51:47.644Z,55.08
2022-11-22T12:54:26.152Z,57.97
2022-11-22T12:56:56.362Z,61.55
2022-11-22T13:02:45.346Z,55.85
2022-11-22T13:05:24.170Z,60.15
2022-11-22T13:07:58.955Z,56.50
2022-11-22T13:10:56.177Z,55.28
2022-11-22T13:13:36.201Z,59.42
2022-11-22T13:16:14.430Z,57.63
2022-11-22T13:19:04.065Z,52.95
2022-11-22T13:22:03.105Z,54.55
2022-11-22T13:24:47.573Z,58.22
2022-11-22T13:27:38.109Z,56.60
2022-11-22T13:30:05.499Z,56.08
2022-11-22T13:32:34.788Z,59.13
2022-11-22T13:35:24.186Z,53.60
2022-11-22T13:37:54.065Z,50.33
2022-11-22T13:40:57.112Z,58.35
2022-11-22T13:43:52.559Z,54.25
2022-11-22T13:46:57.181Z,51.83
2022-11-22T13:49:37.414Z,56.50
2022-11-22T13:52:24.163Z,53.53
2022-11-22T13:54:52.792Z,56.42
2022-11-22T13:57:41.172Z,59.75
2022-11-22T14:00:23.259Z,55.40
2022-11-22T14:02:54.868Z,53.60
2022-11-22T14:05:52.203Z,56.85
2022-11-22T14:08:30.458Z,55.42
2022-11-22T14:11:03.123Z,57.78
2022-11-22T14:13:59.558Z,53.35
2022-11-22T14:16:33.107Z,54.20
2022-11-22T14:19:44.612Z,53.60
2022-11-22T14:22:29.200Z,59.05
2022-11-22T14:25:12.152Z,54.45
2022-11-22T14:27:56.853Z,55.08
2022-11-22T14:30:51.784Z,57.05
2022-11-22T14:33:31.117Z,57.97
2022-11-22T14:36:06.942Z,59.97
2022-11-22T14:38:45.231Z,56.80
2022-11-22T14:41:34.133Z,58.38
2022-11-22T14:44:16.187Z,60.20
2022-11-22T14:47:09.230Z,53.03
2022-11-22T14:49:55.208Z,66.82
2022-11-22T14:52:25.743Z,61.50
2022-11-22T14:55:08.216Z,61.08
2022-11-22T14:57:44.188Z,63.88
2022-11-22T15:00:31.116Z,58.08
2022-11-22T15:03:16.108Z,61.30
2022-11-22T15:09:21.647Z,61.60
2022-11-22T15:09:50.992Z,63.03
2022-11-22T15:12:50.081Z,63.03
2022-11-22T15:57:44.828Z,67.13
2022-11-22T16:00:24.525Z,68.05
2022-11-22T16:03:04.124Z,70.25
2022-11-22T16:06:10.355Z,64.18
2022-11-22T16:08:32.669Z,66.43
2022-11-22T16:11:00.121Z,74.93
2022-11-22T16:13:28.958Z,70.95
2022-11-22T16:16:17.103Z,69.40
2022-11-22T16:18:51.126Z,72.22
2022-11-22T16:21:28.112Z,70.53
2022-11-22T16:24:18.774Z,76.35
2022-11-22T16:27:04.073Z,75.15
2022-11-22T16:29:34.186Z,78.93
2022-11-22T16:32:20.210Z,78.25
2022-11-22T16:35:21.735Z,74.25
2022-11-22T16:37:57.137Z,72.72
2022-11-22T16:40:30.973Z,77.40
2022-11-22T16:43:09.419Z,83.35
2022-11-22T16:45:36.384Z,84.75
2022-11-22T16:50:50.137Z,74.32
2022-11-22T16:53:23.099Z,73.53
2022-11-22T16:55:50.314Z,83.40
2022-11-22T16:58:30.191Z,83.80
2022-11-22T17:01:03.174Z,79.85
2022-11-22T17:03:33.713Z,76.82
2022-11-22T17:06:07.072Z,86.78
2022-11-22T17:08:33.683Z,81.35
2022-11-22T17:11:00.557Z,82.85
2022-11-22T17:13:34.112Z,78.95
2022-11-22T17:16:00.778Z,76.22
2022-11-22T17:18:34.078Z,75.43
2022-11-22T17:21:00.733Z,80.22
2022-11-22T17:23:42.098Z,78.95
2022-11-22T17:26:10.145Z,74.78
2022-11-22T17:28:36.785Z,83.05
2022-11-22T17:31:12.060Z,82.28
2022-11-22T17:33:45.067Z,80.50
2022-11-22T17:36:41.169Z,72.97
2022-11-22T17:39:17.092Z,76.90
2022-11-22T17:41:50.124Z,80.57
2022-11-22T17:44:24.071Z,83.20
2022-11-22T17:46:50.665Z,76.28
2022-11-22T17:49:17.297Z,82.90
2022-11-22T17:51:51.137Z,80.55
2022-11-22T17:54:17.821Z,86.03
2022-11-22T17:56:51.542Z,74.25
2022-11-22T17:59:25.172Z,88.55
2022-11-22T18:01:58.133Z,84.85
2022-11-22T18:04:31.572Z,85.00
2022-11-22T18:07:05.234Z,81.22
2022-11-22T18:09:32.369Z,80.55
2022-11-22T18:11:59.287Z,81.22
2022-11-22T18:14:34.094Z,79.65
2022-11-22T18:17:00.756Z,81.55
2022-11-22T18:19:34.483Z,84.70
2022-11-22T18:22:01.152Z,75.40
2022-11-22T18:24:27.767Z,85.40
2022-11-22T18:27:01.082Z,84.45
2022-11-22T18:29:53.240Z,82.70
2022-11-22T18:32:19.901Z,85.35
2022-11-22T18:34:53.076Z,78.07
2022-11-22T18:37:26.133Z,78.22
2022-11-22T18:39:59.480Z,72.35
2022-11-22T18:42:33.066Z,87.45
2022-11-22T18:44:59.889Z,86.22
2022-11-22T18:47:33.086Z,81.47
2022-11-22T18:50:09.608Z,89.75
2022-11-22T18:52:39.114Z,80.65
2022-11-22T18:55:14.113Z,88.85
2022-11-22T18:57:40.731Z,82.60
2022-11-22T19:00:08.605Z,87.72
2022-11-22T19:02:42.109Z,96.57
2022-11-22T19:05:08.925Z,80.13
2022-11-22T19:07:35.678Z,87.07
2022-11-22T19:10:09.221Z,94.40
2022-11-22T19:12:35.870Z,82.65
2022-11-22T19:15:09.070Z,82.47
2022-11-22T19:17:37.646Z,87.53
2022-11-22T19:20:32.129Z,86.10
2022-11-22T19:22:57.644Z,83.38
2022-11-22T19:25:31.118Z,81.88
2022-11-22T19:28:04.040Z,85.45
2022-11-22T19:30:41.254Z,84.93
2022-11-22T19:33:17.171Z,85.70
2022-11-22T19:35:54.296Z,91.22
2022-11-22T19:38:27.148Z,89.10
2022-11-22T19:41:07.061Z,80.70
2022-11-22T19:43:33.657Z,87.70
2022-11-22T19:46:01.780Z,82.25
2022-11-22T19:48:35.132Z,87.82
2022-11-22T19:51:13.560Z,82.55
2022-11-22T19:53:47.070Z,81.15
2022-11-22T19:56:16.629Z,82.57
2022-11-22T19:58:44.820Z,86.55
2022-11-22T20:01:20.193Z,75.07
2022-11-22T20:03:57.080Z,80.15
2022-11-22T20:06:23.724Z,84.82
2022-11-22T20:08:50.359Z,80.50
2022-11-22T20:11:28.145Z,86.63
2022-11-22T20:13:54.824Z,72.43
2022-11-22T20:16:31.088Z,70.50
2022-11-22T20:19:03.755Z,81.78
2022-11-22T20:21:38.137Z,79.45
2022-11-22T20:24:06.297Z,85.85
2022-11-22T20:26:40.096Z,79.15
2022-11-22T20:29:08.594Z,70.68
2022-11-22T20:31:44.176Z,82.18
2022-11-22T20:34:17.618Z,68.97
2022-11-22T20:36:51.057Z,76.10
2022-11-22T20:39:17.664Z,87.03
2022-11-22T20:42:26.403Z,87.10
2022-11-22T20:44:51.055Z,87.68
2022-11-22T20:47:17.712Z,80.97
2022-11-22T20:49:51.072Z,82.15
2022-11-22T20:52:17.661Z,82.95
2022-11-22T20:54:51.062Z,75.80
2022-11-22T20:57:17.757Z,67.03
2022-11-22T20:59:51.085Z,76.18
2022-11-22T21:02:18.037Z,79.75
2022-11-22T21:04:44.687Z,74.80
2022-11-22T21:07:18.160Z,77.43
2022-11-22T21:09:44.774Z,72.78
2022-11-22T21:12:11.518Z,81.93
2022-11-22T21:14:45.098Z,80.57
2022-11-22T21:17:39.323Z,79.95
2022-11-22T21:20:05.039Z,80.30
2022-11-22T21:22:38.054Z,76.20
2022-11-22T21:25:05.722Z,78.63
2022-11-22T21:27:32.585Z,77.57
2022-11-22T21:30:06.120Z,81.53
2022-11-22T21:32:32.846Z,84.80
2022-11-22T21:34:59.460Z,74.15
2022-11-22T21:37:33.050Z,86.38
2022-11-22T21:40:06.072Z,86.97
2022-11-22T21:42:40.727Z,79.60
2022-11-22T21:45:15.059Z,72.75
2022-11-22T21:47:41.951Z,79.75
2022-11-22T21:50:11.854Z,87.57
2022-11-22T21:52:45.116Z,80.25
2022-11-22T21:55:12.031Z,79.18
2022-11-22T21:57:45.071Z,81.15
2022-11-22T22:00:19.143Z,77.30
2022-11-22T22:02:45.735Z,73.60
2022-11-22T22:05:12.376Z,80.95
2022-11-22T22:07:52.440Z,84.22
2022-11-22T22:10:19.778Z,89.28
2022-11-22T22:12:56.100Z,77.93
2022-11-22T22:15:29.052Z,75.85
2022-11-22T22:17:55.647Z,72.18
2022-11-22T22:20:22.993Z,75.60
2022-11-22T22:22:56.059Z,83.07
2022-11-22T22:25:29.170Z,80.68
2022-11-22T22:28:04.105Z,79.25
2022-11-22T22:30:30.695Z,82.90
2022-11-22T22:33:05.120Z,79.65
2022-11-22T22:35:38.060Z,95.57
2022-11-22T22:38:04.632Z,75.18
2022-11-22T22:40:38.115Z,83.50
2022-11-22T22:43:18.077Z,90.78
2022-11-22T22:45:51.138Z,90.38
2022-11-22T22:48:18.520Z,89.38
2022-11-22T22:50:52.042Z,95.50
2022-11-22T22:53:25.056Z,86.15
2022-11-22T22:56:02.076Z,79.30
2022-11-22T22:58:28.724Z,97.10
2022-11-22T23:00:55.466Z,82.35
2022-11-22T23:03:29.123Z,88.68
2022-11-22T23:05:55.745Z,76.80
2022-11-22T23:08:29.109Z,98.30
2022-11-22T23:11:01.304Z,88.38
2022-11-22T23:13:34.055Z,75.95
2022-11-22T23:16:08.114Z,91.30
2022-11-22T23:18:38.526Z,84.10
2022-11-22T23:21:07.268Z,82.05
2022-11-22T23:23:41.090Z,91.72
2022-11-22T23:26:10.639Z,90.72
2022-11-22T23:28:44.108Z,83.00
2022-11-22T23:31:13.622Z,76.05
2022-11-22T23:33:42.068Z,78.07
2022-11-22T23:36:18.166Z,88.97
2022-11-22T23:38:45.622Z,71.50
2022-11-22T23:41:27.054Z,79.82
2022-11-22T23:43:55.355Z,93.47
2022-11-22T23:46:24.859Z,92.28
2022-11-22T23:49:03.030Z,94.68
2022-11-22T23:51:31.787Z,91.05
2022-11-22T23:54:00.737Z,88.32
2022-11-22T23:56:35.065Z,85.55
2022-11-22T23:59:02.219Z,82.68
